createdAt,value
2023-02-28T00:08:42.984Z,12.70
2023-02-28T00:18:46.211Z,12.70
2023-02-28T00:28:49.366Z,12.71
2023-02-28T00:38:52.564Z,12.70
2023-02-28T00:48:55.706Z,12.71
2023-02-28T00:58:58.901Z,12.71
2023-02-28T01:09:02.048Z,12.71
2023-02-28T01:19:05.260Z,12.71
2023-02-28T01:29:08.411Z,12.71
2023-02-28T01:39:11.591Z,12.61
2023-02-28T01:49:14.732Z,12.61
2023-02-28T01:59:17.921Z,12.61
2023-02-28T02:09:21.072Z,12.61
2023-02-28T02:19:24.644Z,12.61
2023-02-28T02:29:27.794Z,12.61
2023-02-28T02:39:30.981Z,12.61
2023-02-28T02:49:34.128Z,12.61
2023-02-28T02:59:37.331Z,12.61
2023-02-28T03:09:40.500Z,12.61
2023-02-28T03:19:43.690Z,12.61
2023-02-28T03:29:46.843Z,12.61
2023-02-28T03:39:50.029Z,12.61
2023-02-28T03:49:53.267Z,12.61
2023-02-28T03:59:56.467Z,12.61
2023-02-28T04:09:59.615Z,12.61
2023-02-28T04:20:02.792Z,12.61
2023-02-28T04:30:05.972Z,12.61
2023-02-28T04:40:09.164Z,12.61
2023-02-28T04:50:12.315Z,12.61
2023-02-28T05:00:15.506Z,12.61
2023-02-28T05:10:18.654Z,12.61
2023-02-28T05:20:21.845Z,12.61
2023-02-28T05:30:25.003Z,12.61
2023-02-28T05:40:28.180Z,12.61
2023-02-28T05:50:31.332Z,12.61
2023-02-28T06:00:34.526Z,12.62
2023-02-28T06:10:37.683Z,12.62
2023-02-28T06:20:40.885Z,12.62
2023-02-28T06:30:46.362Z,12.51
2023-02-28T06:40:47.116Z,12.51
2023-02-28T06:50:50.267Z,12.51
2023-02-28T07:00:53.491Z,12.51
2023-02-28T07:10:56.645Z,12.51
2023-02-28T07:20:59.849Z,12.51
2023-02-28T07:31:03.033Z,12.51
2023-02-28T07:41:06.229Z,12.51
2023-02-28T07:51:09.377Z,12.51
2023-02-28T08:01:12.577Z,12.50
2023-02-28T08:11:15.743Z,12.50
2023-02-28T08:21:18.945Z,12.50
2023-02-28T08:31:22.149Z,12.50
2023-02-28T08:41:25.333Z,12.49
2023-02-28T08:51:28.904Z,12.49
2023-02-28T09:01:32.573Z,12.60
2023-02-28T09:11:35.970Z,12.60
2023-02-28T09:21:39.154Z,12.60
2023-02-28T09:31:42.310Z,12.60
2023-02-28T09:41:45.500Z,12.60
2023-02-28T09:51:48.652Z,12.60
2023-02-28T10:01:51.916Z,12.60
2023-02-28T10:11:56.098Z,12.60
2023-02-28T10:21:57.661Z,12.60
2023-02-28T10:32:00.834Z,12.60
2023-02-28T10:42:04.024Z,12.60
2023-02-28T10:52:07.183Z,12.60
2023-02-28T11:02:10.413Z,12.60
2023-02-28T11:12:13.602Z,12.60
2023-02-28T11:22:16.846Z,12.60
2023-02-28T11:32:20.174Z,12.60
2023-02-28T11:42:23.416Z,12.60
2023-02-28T11:52:26.564Z,12.60
2023-02-28T12:02:29.845Z,12.60
2023-02-28T12:12:33.050Z,12.60
2023-02-28T12:22:36.239Z,12.60
2023-02-28T12:32:39.441Z,12.60
2023-02-28T12:42:42.667Z,12.60
2023-02-28T12:52:45.906Z,12.60
2023-02-28T13:02:49.087Z,12.60
2023-02-28T13:12:52.223Z,12.60
2023-02-28T13:22:55.459Z,12.60
2023-02-28T13:32:58.612Z,12.60
2023-02-28T13:43:01.818Z,12.50
2023-02-28T13:53:05.040Z,12.60
2023-02-28T14:03:08.304Z,12.50
2023-02-28T14:13:11.469Z,12.61
2023-02-28T14:23:14.825Z,12.60
2023-02-28T14:33:18.045Z,12.50
2023-02-28T14:43:21.328Z,12.51
2023-02-28T14:53:24.483Z,12.50
2023-02-28T15:03:27.671Z,12.50
2023-02-28T15:13:30.853Z,12.51
2023-02-28T15:23:34.086Z,12.50
2023-02-28T15:33:37.234Z,12.50
2023-02-28T15:43:40.486Z,12.51
2023-02-28T15:53:43.647Z,12.50
2023-02-28T16:03:46.850Z,12.51
2023-02-28T16:13:50.017Z,12.51
2023-02-28T16:23:53.217Z,12.51
2023-02-28T16:33:58.089Z,12.51
2023-02-28T16:43:59.559Z,12.51
2023-02-28T16:54:02.712Z,12.51
2023-02-28T17:04:05.918Z,12.51
2023-02-28T17:14:09.081Z,12.51
2023-02-28T17:24:14.326Z,12.51
2023-02-28T17:34:16.967Z,12.51
2023-02-28T17:44:20.162Z,12.51
2023-02-28T17:54:23.311Z,12.51
2023-02-28T18:04:26.512Z,12.51
2023-02-28T18:14:29.676Z,12.51
2023-02-28T18:24:33.052Z,12.51
2023-02-28T18:34:36.196Z,12.51
2023-02-28T18:44:39.387Z,12.51
2023-02-28T18:54:42.587Z,12.51
2023-02-28T19:04:45.791Z,12.51
2023-02-28T19:14:48.943Z,12.51
2023-02-28T19:24:52.134Z,12.51
2023-02-28T19:34:55.282Z,12.51
2023-02-28T19:44:58.484Z,12.51
2023-02-28T19:55:01.632Z,12.51
2023-02-28T20:05:04.841Z,12.51
2023-02-28T20:15:08.036Z,12.51
2023-02-28T20:25:11.234Z,12.51
2023-02-28T20:35:14.416Z,12.51
2023-02-28T20:45:17.622Z,12.51
2023-02-28T20:55:20.785Z,12.51
2023-02-28T21:05:23.992Z,12.51
2023-02-28T21:15:27.264Z,12.51
2023-02-28T21:25:30.437Z,12.51
2023-02-28T21:35:33.644Z,12.51
2023-02-28T21:45:36.878Z,12.51
2023-02-28T21:55:40.035Z,12.51
2023-02-28T22:05:43.230Z,12.51
2023-02-28T22:15:46.523Z,12.51
2023-02-28T22:25:49.711Z,12.51
2023-02-28T22:35:52.919Z,12.51
2023-02-28T22:45:56.191Z,12.51
2023-02-28T22:55:59.340Z,12.41
2023-02-28T23:06:02.538Z,12.51
2023-02-28T23:16:05.758Z,12.51
2023-02-28T23:26:08.977Z,12.41
2023-02-28T23:36:12.157Z,12.41
2023-02-28T23:46:15.431Z,12.41
2023-02-28T23:56:18.588Z,12.51
